createdAt,value
2022-11-28T00:01:29.678Z,45.38
2022-11-28T00:03:57.935Z,46.33
2022-11-28T00:06:27.058Z,45.85
2022-11-28T00:08:56.171Z,43.75
2022-11-28T00:11:23.967Z,44.22
2022-11-28T00:13:52.273Z,44.33
2022-11-28T00:16:22.994Z,46.42
2022-11-28T00:18:54.487Z,43.58
2022-11-28T00:21:23.295Z,45.20
2022-11-28T00:23:52.252Z,47.50
2022-11-28T00:26:22.452Z,45.88
2022-11-28T00:28:50.650Z,46.13
2022-11-28T00:31:20.788Z,45.38
2022-11-28T00:33:49.373Z,44.55
2022-11-28T00:36:18.700Z,43.83
2022-11-28T00:38:46.968Z,44.95
2022-11-28T00:41:16.423Z,45.35
2022-11-28T00:43:46.127Z,46.05
2022-11-28T00:46:15.310Z,45.45
2022-11-28T00:48:43.695Z,47.35
2022-11-28T00:51:13.355Z,50.75
2022-11-28T00:53:44.027Z,53.33
2022-11-28T00:56:13.841Z,52.03
2022-11-28T00:58:42.866Z,49.88
2022-11-28T01:01:11.949Z,49.30
2022-11-28T01:03:40.536Z,49.17
2022-11-28T01:06:09.567Z,47.78
2022-11-28T01:08:38.155Z,44.78
2022-11-28T01:11:12.954Z,45.35
2022-11-28T01:13:41.715Z,41.88
2022-11-28T01:16:10.348Z,42.13
2022-11-28T01:18:39.012Z,42.75
2022-11-28T01:21:07.822Z,44.92
2022-11-28T01:23:36.396Z,44.70
2022-11-28T01:26:05.916Z,39.88
2022-11-28T01:28:35.670Z,41.05
2022-11-28T01:31:05.953Z,41.67
2022-11-28T01:33:34.134Z,42.20
2022-11-28T01:36:02.304Z,39.92
2022-11-28T01:38:30.808Z,41.13
2022-11-28T01:40:58.822Z,41.60
2022-11-28T01:43:26.871Z,42.17
2022-11-28T01:45:56.848Z,41.10
2022-11-28T01:48:27.831Z,43.08
2022-11-28T01:50:58.860Z,42.60
2022-11-28T01:53:30.104Z,42.92
2022-11-28T01:56:02.988Z,43.28
2022-11-28T01:58:33.824Z,42.53
2022-11-28T02:01:04.497Z,44.10
2022-11-28T02:03:40.323Z,45.25
2022-11-28T02:06:08.807Z,42.60
2022-11-28T02:08:37.379Z,42.42
2022-11-28T02:11:23.895Z,42.35
2022-11-28T02:14:00.367Z,44.05
2022-11-28T02:16:44.953Z,43.80
2022-11-28T02:19:36.696Z,42.38
2022-11-28T02:22:11.733Z,42.40
2022-11-28T02:24:57.962Z,40.15
2022-11-28T02:27:41.677Z,39.92
2022-11-28T02:30:16.855Z,38.70
2022-11-28T02:33:02.201Z,39.63
2022-11-28T02:35:40.287Z,40.83
2022-11-28T02:38:17.829Z,43.10
2022-11-28T02:40:55.131Z,41.83
2022-11-28T02:43:30.487Z,41.95
2022-11-28T02:46:05.217Z,44.88
2022-11-28T02:48:41.440Z,44.42
2022-11-28T02:51:15.686Z,46.03
2022-11-28T02:53:46.764Z,47.90
2022-11-28T02:56:15.066Z,45.70
2022-11-28T02:58:42.777Z,46.25
2022-11-28T03:01:18.926Z,45.40
2022-11-28T03:04:04.283Z,47.83
2022-11-28T03:06:42.332Z,45.38
2022-11-28T03:09:38.727Z,43.10
2022-11-28T03:12:21.439Z,42.33
2022-11-28T03:14:52.960Z,42.25
2022-11-28T03:17:28.838Z,35.20
2022-11-28T03:20:14.011Z,44.45
2022-11-28T03:22:50.039Z,44.65
2022-11-28T03:25:26.439Z,40.97
2022-11-28T03:27:59.867Z,42.15
2022-11-28T03:30:33.825Z,40.42
2022-11-28T03:33:03.797Z,41.78
2022-11-28T03:35:39.660Z,40.55
2022-11-28T03:38:12.603Z,39.42
2022-11-28T03:40:45.020Z,39.92
2022-11-28T03:43:18.453Z,39.40
2022-11-28T03:45:50.156Z,38.92
2022-11-28T03:48:22.474Z,29.63
2022-11-28T03:50:56.505Z,36.78
2022-11-28T03:53:29.985Z,37.03
2022-11-28T03:56:03.187Z,36.17
2022-11-28T03:58:36.490Z,34.42
2022-11-28T04:01:26.249Z,35.67
2022-11-28T04:03:59.459Z,37.92
2022-11-28T04:06:34.715Z,37.65
2022-11-28T04:09:11.498Z,34.10
2022-11-28T04:11:48.351Z,31.25
2022-11-28T04:14:21.611Z,30.08
2022-11-28T04:16:55.877Z,31.60
2022-11-28T04:19:31.648Z,33.20
2022-11-28T04:22:04.711Z,34.20
2022-11-28T04:24:36.961Z,32.80
2022-11-28T04:27:08.159Z,32.85
2022-11-28T04:29:40.347Z,32.75
2022-11-28T04:32:10.416Z,31.83
2022-11-28T04:34:40.568Z,31.50
2022-11-28T04:37:14.136Z,30.35
2022-11-28T04:39:43.940Z,31.35
2022-11-28T04:42:15.428Z,30.63
2022-11-28T04:44:50.045Z,29.52
2022-11-28T04:47:18.552Z,29.63
2022-11-28T04:49:46.940Z,30.70
2022-11-28T04:52:21.856Z,30.55
2022-11-28T04:54:56.895Z,31.08
2022-11-28T04:57:30.211Z,31.83
2022-11-28T04:59:59.725Z,33.15
2022-11-28T05:02:29.595Z,40.22
2022-11-28T05:04:58.336Z,40.15
2022-11-28T05:07:27.700Z,35.55
2022-11-28T05:09:57.606Z,31.33
2022-11-28T05:12:25.408Z,32.63
2022-11-28T05:14:53.474Z,30.38
2022-11-28T05:17:21.159Z,31.70
2022-11-28T05:19:49.313Z,32.13
2022-11-28T05:22:17.267Z,31.55
2022-11-28T05:24:46.737Z,30.90
2022-11-28T05:27:14.957Z,28.52
2022-11-28T05:29:48.093Z,30.52
2022-11-28T05:32:17.359Z,28.88
2022-11-28T05:34:45.422Z,29.85
2022-11-28T05:37:13.470Z,28.73
2022-11-28T05:39:41.856Z,29.30
2022-11-28T05:42:11.280Z,27.70
2022-11-28T05:44:39.449Z,27.95
2022-11-28T05:47:07.140Z,28.10
2022-11-28T05:49:35.222Z,30.80
2022-11-28T05:52:03.035Z,32.28
2022-11-28T05:54:31.563Z,31.88
2022-11-28T05:56:59.453Z,36.75
2022-11-28T05:59:28.906Z,45.35
2022-11-28T06:01:56.644Z,47.00
2022-11-28T06:04:24.917Z,41.47
2022-11-28T06:06:52.772Z,39.72
2022-11-28T06:09:24.606Z,42.55
2022-11-28T06:11:54.096Z,38.80
2022-11-28T06:14:22.109Z,38.42
2022-11-28T06:16:51.198Z,36.10
2022-11-28T06:19:19.656Z,37.85
2022-11-28T06:21:47.567Z,43.60
2022-11-28T06:24:15.523Z,48.83
2022-11-28T06:26:43.399Z,31.10
2022-11-28T06:29:11.610Z,43.88
2022-11-28T06:31:39.460Z,53.15
2022-11-28T06:34:09.091Z,48.00
2022-11-28T06:36:36.865Z,43.13
2022-11-28T06:39:05.395Z,44.50
2022-11-28T06:41:33.307Z,42.78
2022-11-28T06:44:01.274Z,45.72
2022-11-28T06:46:29.185Z,45.88
2022-11-28T06:48:57.329Z,43.53
2022-11-28T06:51:26.395Z,45.42
2022-11-28T06:53:55.377Z,44.60
2022-11-28T06:56:23.415Z,46.17
2022-11-28T06:58:56.606Z,47.92
2022-11-28T07:01:26.237Z,47.47
2022-11-28T07:03:55.299Z,43.40
2022-11-28T07:06:24.400Z,45.05
2022-11-28T07:08:54.535Z,46.95
2022-11-28T07:11:24.170Z,48.40
2022-11-28T07:13:53.649Z,44.58
2022-11-28T07:16:23.880Z,45.08
2022-11-28T07:18:53.094Z,45.00
2022-11-28T07:21:21.643Z,45.33
2022-11-28T07:23:50.071Z,45.33
2022-11-28T07:26:21.333Z,46.85
2022-11-28T07:28:51.062Z,49.07
2022-11-28T07:31:22.139Z,47.85
2022-11-28T07:33:52.488Z,46.70
2022-11-28T07:36:23.352Z,45.05
2022-11-28T07:38:53.547Z,43.47
2022-11-28T07:41:26.487Z,44.35
2022-11-28T07:43:57.179Z,43.33
2022-11-28T07:46:25.675Z,42.88
2022-11-28T07:48:54.563Z,45.47
2022-11-28T07:51:24.219Z,44.88
2022-11-28T07:53:52.883Z,45.03
2022-11-28T07:56:24.794Z,42.47
2022-11-28T07:58:53.167Z,42.10
2022-11-28T08:01:22.435Z,45.13
2022-11-28T08:03:51.738Z,48.28
2022-11-28T08:06:21.886Z,44.60
2022-11-28T08:08:51.069Z,45.28
2022-11-28T08:11:20.820Z,46.45
2022-11-28T08:13:51.865Z,47.72
2022-11-28T08:16:23.862Z,45.35
2022-11-28T08:18:53.013Z,49.58
2022-11-28T08:21:24.439Z,48.42
2022-11-28T08:23:54.028Z,46.72
2022-11-28T08:26:28.765Z,43.95
2022-11-28T08:29:00.344Z,37.47
2022-11-28T08:31:30.768Z,40.63
2022-11-28T08:34:02.048Z,37.53
2022-11-28T08:36:30.423Z,41.90
2022-11-28T08:39:22.795Z,95.13
2022-11-28T08:41:49.712Z,111.07
2022-11-28T08:44:19.128Z,72.18
2022-11-28T08:46:46.875Z,33.50
2022-11-28T08:49:15.968Z,40.53
2022-11-28T08:51:43.785Z,35.20
2022-11-28T08:54:11.814Z,36.03
2022-11-28T13:31:32.527Z,16.25
2022-11-28T13:34:01.327Z,16.50
2022-11-28T13:39:34.282Z,17.15
2022-11-28T13:42:44.335Z,17.50
2022-11-28T13:45:08.085Z,17.60
2022-11-28T13:47:38.113Z,17.23
2022-11-28T13:50:33.680Z,18.73
2022-11-28T13:53:03.081Z,17.50
2022-11-28T13:55:46.565Z,18.40
2022-11-28T13:58:28.520Z,18.60
2022-11-28T14:01:08.899Z,17.83
2022-11-28T14:03:49.126Z,15.38
2022-11-28T14:06:21.674Z,14.13
2022-11-28T14:09:00.370Z,15.32
2022-11-28T14:11:56.775Z,14.90
2022-11-28T14:14:46.207Z,14.25
2022-11-28T14:17:32.496Z,13.85
2022-11-28T14:20:18.135Z,14.70
2022-11-28T14:22:56.911Z,13.93
2022-11-28T14:25:28.862Z,14.50
2022-11-28T14:28:00.648Z,14.48
2022-11-28T14:30:33.177Z,14.27
2022-11-28T14:33:03.938Z,15.27
2022-11-28T14:36:05.511Z,15.18
2022-11-28T14:38:45.095Z,14.93
2022-11-28T14:41:15.217Z,16.60
2022-11-28T14:43:46.135Z,16.52
2022-11-28T14:46:21.842Z,17.98
2022-11-28T14:49:20.209Z,18.02
2022-11-28T14:52:36.969Z,18.48
2022-11-28T14:54:58.117Z,18.67
2022-11-28T14:57:30.343Z,20.98
2022-11-28T15:00:01.003Z,20.55
2022-11-28T15:02:44.758Z,18.02
2022-11-28T15:05:23.776Z,18.35
2022-11-28T15:08:05.483Z,16.08
2022-11-28T15:10:44.140Z,18.05
2022-11-28T15:13:28.165Z,15.02
2022-11-28T15:15:56.995Z,14.52
2022-11-28T15:18:27.020Z,12.35
2022-11-28T15:21:01.083Z,10.98
2022-11-28T15:23:33.204Z,13.07
2022-11-28T15:28:33.811Z,12.35
2022-11-28T15:31:04.721Z,11.55
2022-11-28T15:33:33.702Z,11.25
2022-11-28T15:36:04.160Z,12.20
2022-11-28T15:38:33.504Z,13.15
2022-11-28T15:41:01.897Z,13.98
2022-11-28T15:43:31.551Z,14.55
2022-11-28T15:46:02.629Z,15.65
2022-11-28T15:48:39.363Z,12.80
2022-11-28T15:51:09.397Z,14.13
2022-11-28T15:53:42.577Z,14.40
2022-11-28T15:56:12.722Z,13.20
2022-11-28T15:58:41.208Z,14.93
2022-11-28T16:01:15.093Z,13.55
2022-11-28T16:03:49.695Z,14.07
2022-11-28T16:06:19.538Z,12.18
2022-11-28T16:08:54.054Z,13.95
2022-11-28T16:11:24.407Z,15.18
2022-11-28T16:13:53.978Z,14.85
2022-11-28T16:16:27.097Z,14.82
2022-11-28T16:18:58.754Z,15.98
2022-11-28T16:21:31.058Z,16.45
2022-11-28T16:24:03.361Z,17.30
2022-11-28T16:26:34.905Z,14.60
2022-11-28T16:29:13.192Z,14.15
2022-11-28T16:31:41.846Z,15.02
2022-11-28T16:34:13.633Z,16.42
2022-11-28T16:36:43.480Z,15.02
2022-11-28T16:39:17.618Z,16.38
2022-11-28T16:41:51.900Z,15.10
2022-11-28T16:44:22.185Z,17.08
2022-11-28T16:46:52.865Z,17.60
2022-11-28T16:49:34.483Z,20.20
2022-11-28T16:52:43.765Z,19.60
2022-11-28T16:55:40.400Z,24.77
2022-11-28T16:58:26.383Z,21.02
2022-11-28T17:01:02.535Z,23.33
2022-11-28T17:03:46.272Z,23.80
2022-11-28T17:06:20.539Z,22.38
2022-11-28T17:08:49.053Z,22.80
2022-11-28T17:11:20.811Z,21.23
2022-11-28T17:13:48.987Z,21.67
2022-11-28T17:16:19.963Z,23.35
2022-11-28T17:18:48.747Z,23.48
2022-11-28T17:21:19.368Z,23.23
2022-11-28T17:23:47.579Z,23.98
2022-11-28T17:26:15.367Z,23.70
2022-11-28T17:28:44.687Z,23.48
2022-11-28T17:31:13.772Z,23.25
2022-11-28T17:33:44.690Z,22.27
2022-11-28T17:36:13.659Z,23.83
2022-11-28T17:38:41.729Z,24.63
2022-11-28T17:41:13.448Z,22.63
2022-11-28T17:43:42.576Z,23.92
2022-11-28T17:46:11.751Z,25.00
2022-11-28T17:48:39.795Z,23.90
2022-11-28T17:51:07.925Z,24.63
2022-11-28T17:53:37.717Z,26.20
2022-11-28T17:56:05.848Z,27.27
2022-11-28T17:58:33.947Z,31.25
2022-11-28T18:01:01.941Z,30.17
2022-11-28T18:03:31.343Z,34.83
2022-11-28T18:05:59.792Z,35.13
2022-11-28T18:08:27.836Z,37.83
2022-11-28T18:11:04.437Z,39.60
2022-11-28T18:13:33.033Z,41.17
2022-11-28T18:16:00.828Z,39.30
2022-11-28T18:18:31.985Z,36.88
2022-11-28T18:21:00.408Z,34.75
2022-11-28T18:23:28.384Z,34.75
2022-11-28T18:25:56.139Z,34.72
2022-11-28T18:28:24.284Z,35.13
2022-11-28T18:30:52.274Z,35.75
2022-11-28T18:33:20.231Z,36.95
2022-11-28T18:35:49.430Z,35.63
2022-11-28T18:38:17.573Z,34.53
2022-11-28T18:40:45.376Z,47.72
2022-11-28T18:43:13.475Z,42.92
2022-11-28T18:45:41.209Z,40.88
2022-11-28T18:48:09.271Z,42.88
2022-11-28T18:50:37.096Z,46.15
2022-11-28T18:53:06.399Z,50.92
2022-11-28T18:55:34.211Z,55.25
2022-11-28T18:58:02.330Z,50.75
2022-11-28T19:00:30.048Z,46.42
2022-11-28T19:02:58.097Z,48.35
2022-11-28T19:05:26.577Z,49.10
2022-11-28T19:07:55.058Z,48.50
2022-11-28T19:10:24.563Z,47.50
2022-11-28T19:12:52.640Z,49.22
2022-11-28T19:15:20.348Z,50.10
2022-11-28T19:17:48.394Z,50.38
2022-11-28T19:20:16.749Z,50.28
2022-11-28T19:22:44.768Z,49.08
2022-11-28T19:25:13.124Z,50.78
2022-11-28T19:27:42.601Z,55.63
2022-11-28T19:30:10.968Z,58.88
2022-11-28T19:32:39.293Z,63.20
2022-11-28T19:35:08.422Z,67.72
2022-11-28T19:37:36.825Z,75.25
2022-11-28T19:40:06.165Z,76.72
2022-11-28T19:42:35.235Z,79.00
2022-11-28T19:45:04.931Z,67.22
2022-11-28T19:47:33.223Z,67.38
2022-11-28T19:50:01.044Z,65.13
2022-11-28T19:52:29.294Z,66.97
2022-11-28T19:54:57.086Z,61.85
2022-11-28T19:57:26.176Z,62.65
2022-11-28T19:59:53.939Z,61.28
2022-11-28T20:02:23.966Z,61.78
2022-11-28T20:04:52.040Z,61.88
2022-11-28T20:07:20.037Z,60.08
2022-11-28T20:09:49.130Z,63.03
2022-11-28T20:12:17.536Z,65.20
2022-11-28T20:14:45.262Z,62.88
2022-11-28T20:17:13.220Z,58.95
2022-11-28T20:19:42.782Z,61.17
2022-11-28T20:22:10.919Z,63.20
2022-11-28T20:24:38.703Z,61.42
2022-11-28T20:27:06.844Z,60.92
2022-11-28T20:29:34.580Z,62.67
2022-11-28T20:32:02.603Z,64.78
2022-11-28T20:34:30.575Z,61.42
2022-11-28T20:37:00.372Z,66.20
2022-11-28T20:39:28.062Z,68.53
2022-11-28T20:41:56.603Z,70.15
2022-11-28T20:44:24.446Z,70.72
2022-11-28T20:46:54.014Z,76.97
2022-11-28T20:49:21.905Z,82.82
2022-11-28T20:51:50.755Z,66.95
2022-11-28T20:54:19.905Z,64.95
2022-11-28T20:59:36.447Z,64.80
2022-11-28T21:02:04.755Z,65.57
2022-11-28T21:04:32.549Z,68.45
2022-11-28T21:07:00.522Z,71.78
2022-11-28T21:09:29.778Z,75.15
2022-11-28T21:11:59.205Z,74.78
2022-11-28T21:14:29.022Z,81.53
2022-11-28T21:16:58.771Z,81.13
2022-11-28T21:19:27.732Z,81.45
2022-11-28T21:21:55.684Z,85.35
2022-11-28T21:24:23.740Z,80.05
2022-11-28T21:26:54.672Z,76.50
2022-11-28T21:29:24.315Z,71.40
2022-11-28T21:31:53.626Z,73.35
2022-11-28T21:34:22.384Z,71.63
2022-11-28T21:36:50.464Z,72.45
2022-11-28T21:39:20.445Z,67.03
2022-11-28T21:41:48.860Z,84.85
2022-11-28T21:44:18.183Z,77.00
2022-11-28T21:46:46.360Z,72.13
2022-11-28T21:49:14.089Z,71.53
2022-11-28T21:51:42.388Z,68.15
2022-11-28T21:54:10.986Z,64.25
2022-11-28T21:56:39.312Z,68.35
2022-11-28T21:59:07.259Z,68.97
2022-11-28T22:01:36.885Z,68.97
2022-11-28T22:04:05.148Z,68.78
2022-11-28T22:06:33.981Z,71.25
2022-11-28T22:11:51.277Z,73.65
2022-11-28T22:14:19.125Z,73.32
2022-11-28T22:16:48.432Z,76.55
2022-11-28T22:19:16.266Z,78.68
2022-11-28T22:21:52.940Z,78.82
2022-11-28T22:24:22.187Z,71.15
2022-11-28T22:26:50.676Z,70.85
2022-11-28T22:29:18.398Z,75.15
2022-11-28T22:31:47.821Z,68.10
2022-11-28T22:34:15.771Z,72.05
2022-11-28T22:36:43.714Z,75.85
2022-11-28T22:39:12.333Z,78.18
2022-11-28T22:41:40.827Z,75.90
2022-11-28T22:44:09.047Z,75.75
2022-11-28T22:46:37.130Z,77.32
2022-11-28T22:49:06.915Z,71.95
2022-11-28T22:51:36.341Z,67.40
2022-11-28T22:54:04.681Z,66.03
2022-11-28T22:56:34.788Z,64.00
2022-11-28T22:59:04.731Z,67.15
2022-11-28T23:01:34.275Z,67.70
2022-11-28T23:04:02.178Z,69.07
2022-11-28T23:06:34.263Z,67.40
2022-11-28T23:09:04.441Z,68.00
2022-11-28T23:11:35.789Z,71.18
2022-11-28T23:14:04.086Z,71.40
2022-11-28T23:16:34.364Z,69.85
2022-11-28T23:19:05.283Z,71.70
2022-11-28T23:21:36.709Z,66.47
2022-11-28T23:24:05.181Z,63.88
2022-11-28T23:26:34.198Z,64.40
2022-11-28T23:29:03.562Z,66.63
2022-11-28T23:31:33.976Z,66.55
2022-11-28T23:34:02.436Z,78.50
2022-11-28T23:36:33.797Z,86.20
2022-11-28T23:39:10.027Z,81.95
2022-11-28T23:41:38.052Z,80.00
2022-11-28T23:44:06.520Z,77.78
2022-11-28T23:46:34.759Z,65.82
2022-11-28T23:49:05.275Z,67.28
2022-11-28T23:51:33.817Z,67.22
2022-11-28T23:54:01.655Z,65.00
2022-11-28T23:56:33.457Z,70.68
2022-11-28T23:59:02.829Z,75.03
